createdAt,value
2023-01-25T00:04:43.494Z,1.50
2023-01-25T00:09:45.296Z,1.50
2023-01-25T00:14:47.163Z,1.50
2023-01-25T00:19:48.953Z,1.60
2023-01-25T00:24:50.762Z,1.60
2023-01-25T00:29:52.510Z,1.50
2023-01-25T00:34:54.261Z,1.50
2023-01-25T00:39:56.009Z,1.50
2023-01-25T00:44:57.723Z,1.50
2023-01-25T00:49:59.476Z,1.50
2023-01-25T00:55:01.214Z,1.50
2023-01-25T01:00:04.015Z,1.50
2023-01-25T01:05:06.673Z,1.50
2023-01-25T01:10:10.147Z,1.50
2023-01-25T01:15:11.926Z,1.40
2023-01-25T01:20:13.763Z,1.40
2023-01-25T01:25:15.591Z,1.50
2023-01-25T01:30:17.401Z,1.40
2023-01-25T01:35:19.248Z,1.40
2023-01-25T01:40:21.534Z,1.40
2023-01-25T01:45:51.511Z,1.40
2023-01-25T01:51:12.214Z,1.40
2023-01-25T01:56:18.161Z,1.40
2023-01-25T02:01:20.427Z,1.40
2023-01-25T02:06:39.592Z,1.40
2023-01-25T02:11:42.370Z,1.40
2023-01-25T02:16:44.418Z,1.40
2023-01-25T02:21:48.362Z,1.40
2023-01-25T02:26:50.160Z,1.40
2023-01-25T02:32:07.917Z,1.40
2023-01-25T02:37:14.510Z,1.40
2023-01-25T02:42:16.289Z,1.30
2023-01-25T02:47:18.682Z,1.20
2023-01-25T02:52:21.672Z,1.30
2023-01-25T02:57:23.611Z,1.30
2023-01-25T03:02:25.631Z,1.30
2023-01-25T03:07:27.626Z,1.30
2023-01-25T03:12:30.913Z,1.30
2023-01-25T03:17:32.921Z,1.30
2023-01-25T03:22:35.622Z,1.20
2023-01-25T03:27:37.417Z,1.20
2023-01-25T03:32:43.342Z,1.20
2023-01-25T03:37:49.643Z,1.20
2023-01-25T03:42:53.532Z,1.20
2023-01-25T03:47:55.550Z,1.20
2023-01-25T03:53:02.567Z,1.20
2023-01-25T03:58:06.777Z,1.10
2023-01-25T04:03:09.728Z,1.10
2023-01-25T04:08:11.605Z,1.10
2023-01-25T04:13:14.953Z,1.10
2023-01-25T04:18:19.030Z,1.10
2023-01-25T04:23:21.903Z,1.10
2023-01-25T04:28:24.630Z,1.10
2023-01-25T04:33:27.450Z,1.10
2023-01-25T04:38:29.439Z,1.10
2023-01-25T04:43:31.403Z,1.10
2023-01-25T04:48:39.009Z,1.10
2023-01-25T04:53:42.373Z,1.10
2023-01-25T04:58:45.310Z,1.00
2023-01-25T05:03:47.438Z,1.10
2023-01-25T05:08:59.206Z,1.10
2023-01-25T05:14:01.149Z,1.10
2023-01-25T05:19:06.532Z,1.10
2023-01-25T05:24:22.244Z,1.10
2023-01-25T05:29:24.005Z,1.10
2023-01-25T05:34:32.521Z,1.10
2023-01-25T05:39:34.472Z,1.20
2023-01-25T05:44:36.456Z,1.10
2023-01-25T05:49:38.861Z,1.10
2023-01-25T05:54:41.874Z,1.10
2023-01-25T05:59:45.165Z,1.10
2023-01-25T06:04:50.657Z,1.10
2023-01-25T06:09:53.571Z,1.00
2023-01-25T06:14:55.321Z,0.90
2023-01-25T06:19:57.800Z,0.90
2023-01-25T06:25:11.475Z,0.90
2023-01-25T06:30:13.718Z,0.80
2023-01-25T06:35:15.623Z,0.80
2023-01-25T06:40:17.897Z,0.80
2023-01-25T06:45:19.738Z,0.90
2023-01-25T06:50:21.553Z,0.90
2023-01-25T06:55:23.559Z,0.90
2023-01-25T07:00:25.415Z,0.80
2023-01-25T07:05:28.322Z,0.70
2023-01-25T07:10:30.970Z,0.70
2023-01-25T07:15:34.178Z,0.60
2023-01-25T07:20:35.942Z,0.60
2023-01-25T07:25:37.738Z,0.60
2023-01-25T07:30:40.501Z,0.60
2023-01-25T07:35:42.269Z,0.60
2023-01-25T07:40:43.999Z,0.50
2023-01-25T07:45:48.728Z,0.50
2023-01-25T07:51:10.393Z,0.50
2023-01-25T07:56:12.924Z,0.50
2023-01-25T08:01:19.640Z,0.50
2023-01-25T08:06:30.711Z,0.60
2023-01-25T08:11:32.894Z,0.60
2023-01-25T08:16:34.844Z,0.60
2023-01-25T08:21:36.652Z,0.60
2023-01-25T08:26:38.513Z,0.50
2023-01-25T08:31:43.750Z,0.60
2023-01-25T08:36:45.510Z,0.60
2023-01-25T08:41:47.283Z,0.60
2023-01-25T08:46:49.243Z,0.60
2023-01-25T08:51:50.961Z,0.70
2023-01-25T08:56:52.935Z,0.80
2023-01-25T09:01:54.643Z,0.80
2023-01-25T09:06:56.435Z,0.80
2023-01-25T09:11:58.337Z,0.80
2023-01-25T09:17:00.250Z,0.80
2023-01-25T09:22:03.386Z,0.80
2023-01-25T09:27:05.890Z,0.80
2023-01-25T09:32:07.692Z,0.80
2023-01-25T09:37:19.138Z,0.80
2023-01-25T09:42:39.080Z,0.90
2023-01-25T09:47:56.046Z,0.90
2023-01-25T09:53:19.393Z,0.90
2023-01-25T09:58:27.944Z,0.90
2023-01-25T10:03:42.525Z,0.80
2023-01-25T10:09:08.335Z,0.90
2023-01-25T10:14:16.629Z,0.90
2023-01-25T10:19:18.406Z,1.10
2023-01-25T10:24:49.203Z,1.10
2023-01-25T10:29:56.286Z,1.10
2023-01-25T10:35:22.775Z,1.10
2023-01-25T10:40:40.600Z,1.00
2023-01-25T10:45:44.492Z,1.10
2023-01-25T10:50:49.047Z,1.10
2023-01-25T10:56:10.684Z,1.10
2023-01-25T11:01:24.501Z,1.10
2023-01-25T11:06:39.582Z,1.10
2023-01-25T11:11:41.603Z,1.10
2023-01-25T11:16:47.841Z,1.10
2023-01-25T11:21:57.875Z,1.10
2023-01-25T11:27:22.285Z,1.10
2023-01-25T11:32:25.367Z,1.20
2023-01-25T11:37:56.570Z,1.20
2023-01-25T11:43:17.034Z,1.20
2023-01-25T11:48:53.647Z,1.10
2023-01-25T11:54:18.921Z,1.10
2023-01-25T11:59:36.692Z,1.10
2023-01-25T12:04:44.424Z,1.10
2023-01-25T12:09:52.165Z,1.10
2023-01-25T12:15:31.940Z,1.20
2023-01-25T12:20:46.845Z,1.10
2023-01-25T12:26:05.421Z,1.00
2023-01-25T12:31:19.034Z,1.00
2023-01-25T12:36:42.714Z,1.10
2023-01-25T12:42:11.872Z,1.10
2023-01-25T12:47:23.024Z,1.10
2023-01-25T12:52:35.037Z,1.10
2023-01-25T12:58:02.021Z,1.10
2023-01-25T13:03:30.481Z,1.00
2023-01-25T13:08:50.169Z,1.10
2023-01-25T13:13:52.081Z,1.10
2023-01-25T13:18:53.948Z,1.20
2023-01-25T13:24:11.379Z,1.20
2023-01-25T13:29:42.911Z,1.20
2023-01-25T13:34:44.683Z,1.10
2023-01-25T13:39:47.846Z,0.90
2023-01-25T13:44:53.415Z,1.00
2023-01-25T13:50:03.936Z,1.10
2023-01-25T13:55:17.533Z,1.00
2023-01-25T14:00:19.890Z,1.00
2023-01-25T14:05:25.294Z,0.90
2023-01-25T14:10:28.423Z,0.90
2023-01-25T14:15:33.098Z,0.90
2023-01-25T14:20:34.825Z,0.90
2023-01-25T14:25:40.782Z,0.90
2023-01-25T14:30:43.033Z,0.90
2023-01-25T14:35:55.423Z,0.90
2023-01-25T14:41:11.058Z,1.00
2023-01-25T14:46:22.849Z,0.90
2023-01-25T14:51:28.779Z,0.90
2023-01-25T14:56:32.902Z,0.80
2023-01-25T15:01:41.576Z,0.90
2023-01-25T15:06:55.165Z,0.90
2023-01-25T15:12:06.103Z,0.90
2023-01-25T15:17:41.594Z,0.80
2023-01-25T15:22:44.775Z,0.80
2023-01-25T15:27:47.850Z,0.80
2023-01-25T15:32:49.758Z,0.80
2023-01-25T15:37:51.539Z,0.80
2023-01-25T15:42:55.594Z,0.80
2023-01-25T15:47:59.227Z,0.80
2023-01-25T15:53:00.953Z,0.80
2023-01-25T15:58:04.162Z,0.70
2023-01-25T16:03:07.118Z,0.70
2023-01-25T16:08:15.776Z,0.60
2023-01-25T16:13:17.666Z,0.60
2023-01-25T16:18:19.905Z,0.70
2023-01-25T16:23:21.623Z,0.70
2023-01-25T16:28:23.408Z,0.70
2023-01-25T16:33:25.318Z,0.60
2023-01-25T16:38:27.037Z,0.60
2023-01-25T16:43:37.969Z,0.50
2023-01-25T16:48:45.675Z,0.50
2023-01-25T16:53:48.702Z,0.50
2023-01-25T16:58:51.730Z,0.50
2023-01-25T17:03:55.283Z,0.50
2023-01-25T17:09:02.239Z,0.50
2023-01-25T17:14:06.288Z,0.50
2023-01-25T17:19:12.499Z,0.50
2023-01-25T17:24:17.244Z,0.50
2023-01-25T17:29:19.026Z,0.40
2023-01-25T17:34:21.863Z,0.40
2023-01-25T17:39:24.712Z,0.30
2023-01-25T17:44:26.514Z,0.30
2023-01-25T17:49:29.336Z,0.30
2023-01-25T17:54:31.133Z,0.30
2023-01-25T17:59:32.974Z,0.20
2023-01-25T18:04:34.810Z,0.30
2023-01-25T18:09:36.541Z,0.30
2023-01-25T18:14:38.297Z,0.20
2023-01-25T18:19:40.167Z,0.30
2023-01-25T18:24:44.601Z,0.30
2023-01-25T18:29:53.770Z,0.40
2023-01-25T18:34:55.860Z,0.30
2023-01-25T18:39:57.742Z,0.30
2023-01-25T18:44:59.504Z,0.30
2023-01-25T18:50:01.259Z,0.30
2023-01-25T18:55:03.129Z,0.20
2023-01-25T19:00:06.583Z,0.20
2023-01-25T19:05:09.275Z,0.20
2023-01-25T19:10:11.562Z,0.30
2023-01-25T19:15:13.392Z,0.20
2023-01-25T19:20:15.342Z,0.20
2023-01-25T19:25:18.088Z,0.20
2023-01-25T19:30:19.899Z,0.10
2023-01-25T19:35:21.773Z,0.10
2023-01-25T19:40:24.934Z,0.20
2023-01-25T19:45:26.762Z,0.10
2023-01-25T19:50:30.449Z,0.10
2023-01-25T19:55:32.242Z,0.10
2023-01-25T20:00:35.162Z,0.10
2023-01-25T20:05:36.863Z,0.20
2023-01-25T20:10:38.553Z,0.30
2023-01-25T20:15:46.534Z,0.30
2023-01-25T20:20:55.947Z,0.20
2023-01-25T20:26:02.454Z,0.10
2023-01-25T20:31:04.786Z,0.20
2023-01-25T20:36:06.965Z,0.20
2023-01-25T20:41:13.490Z,0.20
2023-01-25T20:46:16.078Z,0.20
2023-01-25T20:51:18.061Z,0.20
2023-01-25T20:56:20.233Z,0.20
2023-01-25T21:01:30.415Z,0.20
2023-01-25T21:06:34.260Z,0.20
2023-01-25T21:11:36.041Z,0.20
2023-01-25T21:16:37.956Z,0.30
2023-01-25T21:21:39.823Z,0.30
2023-01-25T21:26:41.582Z,0.30
2023-01-25T21:31:43.897Z,0.20
2023-01-25T21:36:45.734Z,0.20
2023-01-25T21:41:47.639Z,0.20
2023-01-25T21:47:16.290Z,0.20
2023-01-25T21:52:11.142Z,0.30
2023-01-25T21:57:12.965Z,0.30
2023-01-25T22:02:15.225Z,0.30
2023-01-25T22:07:17.050Z,0.20
2023-01-25T22:12:18.907Z,0.20
2023-01-25T22:17:22.505Z,0.30
2023-01-25T22:22:24.323Z,0.30
2023-01-25T22:27:45.765Z,0.30
2023-01-25T22:32:47.551Z,0.30
2023-01-25T22:37:49.365Z,0.30
2023-01-25T22:42:51.145Z,0.20
2023-01-25T22:47:52.847Z,0.20
2023-01-25T22:52:54.577Z,0.10
2023-01-25T22:57:56.305Z,0.10
2023-01-25T23:02:58.047Z,0.10
2023-01-25T23:08:00.111Z,0.10
2023-01-25T23:13:01.881Z,0.10
2023-01-25T23:18:22.187Z,0.10
2023-01-25T23:23:23.995Z,0.10
2023-01-25T23:28:25.730Z,0.20
2023-01-25T23:33:29.618Z,0.10
2023-01-25T23:38:31.341Z,0.20
2023-01-25T23:43:33.296Z,0.20
2023-01-25T23:48:35.389Z,0.10
2023-01-25T23:53:38.552Z,0.10
2023-01-25T23:58:40.493Z,0.10
